Main page


Airports :

Isle of Man,

Isle of Man Airport

latitude: 54-05N, longitude: 004-38W, elevation: 17 m

Current weather observation

The report was made 28 minutes ago, at 05:50 UTC
Wind 6 kt from the Northwest
Temperature 1°C
Humidity 80%
Pressure 1031 hPa
Visibility 10 km or more
Few clouds at a height of 4000 ft

METAR: EGNS 200550Z 31006KT 9999 FEW040 01/M02 Q1031 NOSIG

Time: 06:18 (06:18 UTC)


The report was made 1 hour and 18 minutes ago, at 05:00 UTC
Forecast valid from 20 at 06 UTC to 20 at 15 UTC
Wind 7 kt from the North/Northwest
Visibility 10 km or more
Few clouds at a height of 3000 ft

TAF: EGNS 200500Z 2006/2015 33007KT 9999 FEW030

Weather observations and forecasts of more than 4000 airports (METAR and TAF reports).

The available stations are represented by yellow and red dots on the map.

Hover mouse over dot to see the name of the station.

Then click to see weather observations and forecasts.

To change the map : click on the green buttons with a black cross to zoom in, on the green button with a dash to zoom out, or on the green arrows for adjacent maps.